sensor_id;sensor_type;location;lat;lon;timestamp;P1;durP1;ratioP1;P2;durP2;ratioP2
69573;SDS011;62840;52.366;5.980;2023-07-31T00:02:18;3.30;;;1.00;;
69573;SDS011;62840;52.366;5.980;2023-07-31T00:04:44;3.07;;;0.90;;
69573;SDS011;62840;52.366;5.980;2023-07-31T00:07:10;2.72;;;0.88;;
69573;SDS011;62840;52.366;5.980;2023-07-31T00:09:36;4.77;;;1.20;;
69573;SDS011;62840;52.366;5.980;2023-07-31T00:12:02;4.20;;;0.88;;
69573;SDS011;62840;52.366;5.980;2023-07-31T00:14:28;2.70;;;0.90;;
69573;SDS011;62840;52.366;5.980;2023-07-31T00:16:57;3.30;;;1.00;;
69573;SDS011;62840;52.366;5.980;2023-07-31T00:19:22;3.97;;;1.02;;
69573;SDS011;62840;52.366;5.980;2023-07-31T00:21:48;2.60;;;0.70;;
69573;SDS011;62840;52.366;5.980;2023-07-31T00:24:14;2.97;;;0.77;;
69573;SDS011;62840;52.366;5.980;2023-07-31T00:26:40;3.47;;;0.70;;
69573;SDS011;62840;52.366;5.980;2023-07-31T00:29:05;2.70;;;0.70;;
69573;SDS011;62840;52.366;5.980;2023-07-31T00:31:31;3.35;;;0.70;;
69573;SDS011;62840;52.366;5.980;2023-07-31T00:34:00;2.30;;;0.57;;
69573;SDS011;62840;52.366;5.980;2023-07-31T00:36:25;2.78;;;0.82;;
69573;SDS011;62840;52.366;5.980;2023-07-31T00:38:51;3.42;;;0.80;;
69573;SDS011;62840;52.366;5.980;2023-07-31T00:41:17;3.50;;;1.45;;
69573;SDS011;62840;52.366;5.980;2023-07-31T00:43:42;2.90;;;0.73;;
69573;SDS011;62840;52.366;5.980;2023-07-31T00:46:08;2.73;;;0.70;;
69573;SDS011;62840;52.366;5.980;2023-07-31T00:48:34;2.85;;;0.70;;
69573;SDS011;62840;52.366;5.980;2023-07-31T00:51:03;3.40;;;0.80;;
69573;SDS011;62840;52.366;5.980;2023-07-31T00:53:29;2.97;;;0.70;;
69573;SDS011;62840;52.366;5.980;2023-07-31T00:55:55;2.33;;;0.60;;
69573;SDS011;62840;52.366;5.980;2023-07-31T00:58:22;2.42;;;0.93;;
69573;SDS011;62840;52.366;5.980;2023-07-31T01:00:48;2.42;;;0.85;;
69573;SDS011;62840;52.366;5.980;2023-07-31T01:03:14;5.25;;;1.60;;
69573;SDS011;62840;52.366;5.980;2023-07-31T01:05:43;2.38;;;0.70;;
69573;SDS011;62840;52.366;5.980;2023-07-31T01:08:32;3.25;;;0.65;;
69573;SDS011;62840;52.366;5.980;2023-07-31T01:11:07;4.00;;;1.00;;
69573;SDS011;62840;52.366;5.980;2023-07-31T01:13:40;2.42;;;0.90;;
69573;SDS011;62840;52.366;5.980;2023-07-31T01:16:07;2.50;;;0.90;;
69573;SDS011;62840;52.366;5.980;2023-07-31T01:18:33;2.85;;;0.75;;
69573;SDS011;62840;52.366;5.980;2023-07-31T01:21:02;3.67;;;1.00;;
69573;SDS011;62840;52.366;5.980;2023-07-31T01:26:52;4.63;;;1.38;;
69573;SDS011;62840;52.366;5.980;2023-07-31T01:29:23;4.27;;;1.20;;
69573;SDS011;62840;52.366;5.980;2023-07-31T01:32:03;3.70;;;1.02;;
69573;SDS011;62840;52.366;5.980;2023-07-31T01:34:32;10.57;;;1.40;;
69573;SDS011;62840;52.366;5.980;2023-07-31T01:37:00;2.90;;;0.85;;
69573;SDS011;62840;52.366;5.980;2023-07-31T01:39:26;3.67;;;1.00;;
69573;SDS011;62840;52.366;5.980;2023-07-31T01:41:54;3.80;;;1.00;;
69573;SDS011;62840;52.366;5.980;2023-07-31T01:44:20;3.45;;;1.00;;
69573;SDS011;62840;52.366;5.980;2023-07-31T01:46:46;3.23;;;1.00;;
69573;SDS011;62840;52.366;5.980;2023-07-31T01:49:11;3.28;;;0.90;;
69573;SDS011;62840;52.366;5.980;2023-07-31T01:51:37;3.03;;;0.77;;
69573;SDS011;62840;52.366;5.980;2023-07-31T01:54:03;2.50;;;0.75;;
69573;SDS011;62840;52.366;5.980;2023-07-31T01:56:29;2.80;;;0.80;;
69573;SDS011;62840;52.366;5.980;2023-07-31T01:58:57;2.60;;;0.75;;
69573;SDS011;62840;52.366;5.980;2023-07-31T02:01:23;2.88;;;0.75;;
69573;SDS011;62840;52.366;5.980;2023-07-31T02:03:49;3.33;;;0.70;;
69573;SDS011;62840;52.366;5.980;2023-07-31T02:06:14;3.13;;;1.00;;
69573;SDS011;62840;52.366;5.980;2023-07-31T02:08:40;3.00;;;0.70;;
69573;SDS011;62840;52.366;5.980;2023-07-31T02:11:06;3.38;;;0.70;;
69573;SDS011;62840;52.366;5.980;2023-07-31T02:13:31;2.87;;;0.70;;
69573;SDS011;62840;52.366;5.980;2023-07-31T02:16:00;2.30;;;0.70;;
69573;SDS011;62840;52.366;5.980;2023-07-31T02:18:25;3.07;;;0.70;;
69573;SDS011;62840;52.366;5.980;2023-07-31T02:20:51;3.35;;;0.85;;
69573;SDS011;62840;52.366;5.980;2023-07-31T02:23:17;2.80;;;0.90;;
69573;SDS011;62840;52.366;5.980;2023-07-31T02:25:43;3.10;;;0.80;;
69573;SDS011;62840;52.366;5.980;2023-07-31T02:28:09;3.65;;;0.80;;
69573;SDS011;62840;52.366;5.980;2023-07-31T02:30:36;2.60;;;0.80;;
69573;SDS011;62840;52.366;5.980;2023-07-31T02:33:04;2.83;;;1.00;;
69573;SDS011;62840;52.366;5.980;2023-07-31T02:35:30;4.70;;;1.30;;
69573;SDS011;62840;52.366;5.980;2023-07-31T02:37:56;3.33;;;1.10;;
69573;SDS011;62840;52.366;5.980;2023-07-31T02:40:22;3.80;;;1.23;;
69573;SDS011;62840;52.366;5.980;2023-07-31T02:42:47;3.87;;;1.40;;
69573;SDS011;62840;52.366;5.980;2023-07-31T02:45:13;5.80;;;1.50;;
69573;SDS011;62840;52.366;5.980;2023-07-31T02:47:39;5.10;;;1.60;;
69573;SDS011;62840;52.366;5.980;2023-07-31T02:50:08;4.57;;;1.48;;
69573;SDS011;62840;52.366;5.980;2023-07-31T02:52:35;4.47;;;2.03;;
69573;SDS011;62840;52.366;5.980;2023-07-31T02:55:00;6.13;;;1.80;;
69573;SDS011;62840;52.366;5.980;2023-07-31T02:57:26;4.93;;;1.70;;
69573;SDS011;62840;52.366;5.980;2023-07-31T02:59:52;5.27;;;1.60;;
69573;SDS011;62840;52.366;5.980;2023-07-31T03:02:18;6.53;;;1.90;;
69573;SDS011;62840;52.366;5.980;2023-07-31T03:04:44;5.97;;;1.70;;
69573;SDS011;62840;52.366;5.980;2023-07-31T03:07:12;8.35;;;1.75;;
69573;SDS011;62840;52.366;5.980;2023-07-31T03:09:38;6.30;;;2.20;;
69573;SDS011;62840;52.366;5.980;2023-07-31T03:12:04;8.00;;;2.10;;
69573;SDS011;62840;52.366;5.980;2023-07-31T03:14:30;6.32;;;2.03;;
69573;SDS011;62840;52.366;5.980;2023-07-31T03:16:56;6.53;;;2.33;;
69573;SDS011;62840;52.366;5.980;2023-07-31T03:19:22;5.90;;;1.90;;
69573;SDS011;62840;52.366;5.980;2023-07-31T03:21:48;7.80;;;2.35;;
69573;SDS011;62840;52.366;5.980;2023-07-31T03:24:16;6.60;;;2.13;;
69573;SDS011;62840;52.366;5.980;2023-07-31T03:26:42;8.25;;;2.90;;
69573;SDS011;62840;52.366;5.980;2023-07-31T03:29:07;8.77;;;3.13;;
69573;SDS011;62840;52.366;5.980;2023-07-31T03:31:33;7.67;;;2.53;;
69573;SDS011;62840;52.366;5.980;2023-07-31T03:33:59;13.82;;;3.30;;
69573;SDS011;62840;52.366;5.980;2023-07-31T03:36:25;9.23;;;2.90;;
69573;SDS011;62840;52.366;5.980;2023-07-31T03:38:51;7.68;;;3.20;;
69573;SDS011;62840;52.366;5.980;2023-07-31T03:41:20;11.35;;;3.00;;
69573;SDS011;62840;52.366;5.980;2023-07-31T03:43:46;10.23;;;3.00;;
69573;SDS011;62840;52.366;5.980;2023-07-31T03:46:15;11.55;;;2.80;;
69573;SDS011;62840;52.366;5.980;2023-07-31T03:48:40;9.52;;;3.35;;
69573;SDS011;62840;52.366;5.980;2023-07-31T03:51:06;9.23;;;3.13;;
69573;SDS011;62840;52.366;5.980;2023-07-31T03:53:32;11.15;;;3.58;;
69573;SDS011;62840;52.366;5.980;2023-07-31T03:55:58;11.57;;;3.43;;
69573;SDS011;62840;52.366;5.980;2023-07-31T03:58:26;11.20;;;3.60;;
69573;SDS011;62840;52.366;5.980;2023-07-31T04:00:52;8.90;;;3.67;;
69573;SDS011;62840;52.366;5.980;2023-07-31T04:03:17;11.13;;;3.90;;
69573;SDS011;62840;52.366;5.980;2023-07-31T04:05:44;9.20;;;3.25;;
69573;SDS011;62840;52.366;5.980;2023-07-31T04:08:09;13.55;;;3.67;;
69573;SDS011;62840;52.366;5.980;2023-07-31T04:10:35;11.38;;;3.65;;
69573;SDS011;62840;52.366;5.980;2023-07-31T04:13:01;10.23;;;3.53;;
69573;SDS011;62840;52.366;5.980;2023-07-31T04:15:29;10.43;;;3.50;;
69573;SDS011;62840;52.366;5.980;2023-07-31T04:17:55;10.10;;;3.13;;
69573;SDS011;62840;52.366;5.980;2023-07-31T04:20:21;9.53;;;3.43;;
69573;SDS011;62840;52.366;5.980;2023-07-31T04:22:46;11.65;;;3.47;;
69573;SDS011;62840;52.366;5.980;2023-07-31T04:25:12;10.60;;;4.00;;
69573;SDS011;62840;52.366;5.980;2023-07-31T04:27:38;11.32;;;3.63;;
69573;SDS011;62840;52.366;5.980;2023-07-31T04:30:06;11.30;;;4.30;;
69573;SDS011;62840;52.366;5.980;2023-07-31T04:32:35;10.98;;;3.80;;
69573;SDS011;62840;52.366;5.980;2023-07-31T04:35:01;10.68;;;3.88;;
69573;SDS011;62840;52.366;5.980;2023-07-31T04:37:27;11.52;;;4.15;;
69573;SDS011;62840;52.366;5.980;2023-07-31T04:39:53;15.13;;;4.50;;
69573;SDS011;62840;52.366;5.980;2023-07-31T04:42:19;11.93;;;4.40;;
69573;SDS011;62840;52.366;5.980;2023-07-31T04:44:44;12.83;;;4.67;;
69573;SDS011;62840;52.366;5.980;2023-07-31T04:47:10;12.95;;;3.70;;
69573;SDS011;62840;52.366;5.980;2023-07-31T04:49:39;11.82;;;3.85;;
69573;SDS011;62840;52.366;5.980;2023-07-31T04:52:05;12.38;;;4.07;;
69573;SDS011;62840;52.366;5.980;2023-07-31T04:54:31;13.27;;;3.88;;
69573;SDS011;62840;52.366;5.980;2023-07-31T04:56:57;14.10;;;4.20;;
69573;SDS011;62840;52.366;5.980;2023-07-31T04:59:23;14.27;;;4.33;;
69573;SDS011;62840;52.366;5.980;2023-07-31T05:01:48;11.45;;;4.30;;
69573;SDS011;62840;52.366;5.980;2023-07-31T05:04:14;13.07;;;3.77;;
69573;SDS011;62840;52.366;5.980;2023-07-31T05:06:43;15.50;;;4.40;;
69573;SDS011;62840;52.366;5.980;2023-07-31T05:09:08;12.88;;;4.13;;
69573;SDS011;62840;52.366;5.980;2023-07-31T05:11:34;15.43;;;4.00;;
69573;SDS011;62840;52.366;5.980;2023-07-31T05:14:00;11.93;;;3.78;;
69573;SDS011;62840;52.366;5.980;2023-07-31T05:16:26;13.15;;;3.83;;
69573;SDS011;62840;52.366;5.980;2023-07-31T05:18:51;12.30;;;3.70;;
69573;SDS011;62840;52.366;5.980;2023-07-31T05:21:17;14.73;;;4.47;;
69573;SDS011;62840;52.366;5.980;2023-07-31T05:23:46;12.90;;;4.50;;
69573;SDS011;62840;52.366;5.980;2023-07-31T05:26:11;15.10;;;4.55;;
69573;SDS011;62840;52.366;5.980;2023-07-31T05:28:37;14.50;;;4.72;;
69573;SDS011;62840;52.366;5.980;2023-07-31T05:31:03;12.82;;;4.22;;
69573;SDS011;62840;52.366;5.980;2023-07-31T05:33:30;15.00;;;4.57;;
69573;SDS011;62840;52.366;5.980;2023-07-31T05:35:56;9.73;;;3.95;;
69573;SDS011;62840;52.366;5.980;2023-07-31T05:38:22;11.70;;;3.63;;
69573;SDS011;62840;52.366;5.980;2023-07-31T05:40:51;12.35;;;4.50;;
69573;SDS011;62840;52.366;5.980;2023-07-31T05:43:16;12.52;;;3.47;;
69573;SDS011;62840;52.366;5.980;2023-07-31T05:45:42;13.10;;;4.47;;
69573;SDS011;62840;52.366;5.980;2023-07-31T05:48:08;12.30;;;4.68;;
69573;SDS011;62840;52.366;5.980;2023-07-31T05:50:34;10.43;;;3.90;;
69573;SDS011;62840;52.366;5.980;2023-07-31T05:53:00;10.83;;;4.00;;
69573;SDS011;62840;52.366;5.980;2023-07-31T05:55:26;10.85;;;3.80;;
69573;SDS011;62840;52.366;5.980;2023-07-31T05:57:54;8.77;;;3.75;;
69573;SDS011;62840;52.366;5.980;2023-07-31T06:00:20;10.63;;;4.28;;
69573;SDS011;62840;52.366;5.980;2023-07-31T06:02:46;10.00;;;3.28;;
69573;SDS011;62840;52.366;5.980;2023-07-31T06:05:12;8.20;;;3.55;;
69573;SDS011;62840;52.366;5.980;2023-07-31T06:07:38;10.32;;;3.15;;
69573;SDS011;62840;52.366;5.980;2023-07-31T06:10:05;8.03;;;2.70;;
69573;SDS011;62840;52.366;5.980;2023-07-31T06:12:32;7.32;;;3.28;;
69573;SDS011;62840;52.366;5.980;2023-07-31T06:15:02;8.25;;;2.95;;
69573;SDS011;62840;52.366;5.980;2023-07-31T06:17:29;7.60;;;2.72;;
69573;SDS011;62840;52.366;5.980;2023-07-31T06:19:55;8.63;;;3.10;;
69573;SDS011;62840;52.366;5.980;2023-07-31T06:22:22;10.23;;;2.92;;
69573;SDS011;62840;52.366;5.980;2023-07-31T06:24:48;6.03;;;2.50;;
69573;SDS011;62840;52.366;5.980;2023-07-31T06:27:14;7.47;;;2.20;;
69573;SDS011;62840;52.366;5.980;2023-07-31T06:29:39;7.10;;;2.20;;
69573;SDS011;62840;52.366;5.980;2023-07-31T06:32:08;5.43;;;2.40;;
69573;SDS011;62840;52.366;5.980;2023-07-31T06:34:34;7.10;;;2.63;;
69573;SDS011;62840;52.366;5.980;2023-07-31T06:36:59;6.67;;;3.20;;
69573;SDS011;62840;52.366;5.980;2023-07-31T06:39:25;8.35;;;2.50;;
69573;SDS011;62840;52.366;5.980;2023-07-31T06:41:51;5.93;;;2.20;;
69573;SDS011;62840;52.366;5.980;2023-07-31T06:44:16;4.65;;;2.05;;
69573;SDS011;62840;52.366;5.980;2023-07-31T06:46:42;6.10;;;2.33;;
69573;SDS011;62840;52.366;5.980;2023-07-31T06:49:11;7.70;;;2.03;;
69573;SDS011;62840;52.366;5.980;2023-07-31T06:51:36;7.40;;;2.13;;
69573;SDS011;62840;52.366;5.980;2023-07-31T06:54:02;4.80;;;2.20;;
69573;SDS011;62840;52.366;5.980;2023-07-31T06:56:28;5.63;;;2.42;;
69573;SDS011;62840;52.366;5.980;2023-07-31T06:58:54;6.23;;;2.27;;
69573;SDS011;62840;52.366;5.980;2023-07-31T07:01:21;4.55;;;2.08;;
69573;SDS011;62840;52.366;5.980;2023-07-31T07:03:47;4.43;;;1.90;;
69573;SDS011;62840;52.366;5.980;2023-07-31T07:06:15;4.60;;;2.00;;
69573;SDS011;62840;52.366;5.980;2023-07-31T07:08:41;5.35;;;1.80;;
69573;SDS011;62840;52.366;5.980;2023-07-31T07:11:07;5.05;;;2.25;;
69573;SDS011;62840;52.366;5.980;2023-07-31T07:13:32;6.27;;;2.60;;
69573;SDS011;62840;52.366;5.980;2023-07-31T07:15:58;6.38;;;2.42;;
69573;SDS011;62840;52.366;5.980;2023-07-31T07:18:24;5.47;;;2.10;;
69573;SDS011;62840;52.366;5.980;2023-07-31T07:20:50;5.43;;;2.20;;
69573;SDS011;62840;52.366;5.980;2023-07-31T07:23:20;4.70;;;1.92;;
69573;SDS011;62840;52.366;5.980;2023-07-31T07:25:46;5.17;;;1.93;;
69573;SDS011;62840;52.366;5.980;2023-07-31T07:28:12;6.22;;;1.75;;
69573;SDS011;62840;52.366;5.980;2023-07-31T07:30:39;4.72;;;1.83;;
69573;SDS011;62840;52.366;5.980;2023-07-31T07:33:05;7.65;;;1.73;;
69573;SDS011;62840;52.366;5.980;2023-07-31T07:35:32;4.25;;;1.80;;
69573;SDS011;62840;52.366;5.980;2023-07-31T07:37:59;4.72;;;1.88;;
69573;SDS011;62840;52.366;5.980;2023-07-31T07:40:27;4.65;;;1.77;;
69573;SDS011;62840;52.366;5.980;2023-07-31T07:42:53;3.87;;;1.70;;
69573;SDS011;62840;52.366;5.980;2023-07-31T07:45:18;3.75;;;1.40;;
69573;SDS011;62840;52.366;5.980;2023-07-31T07:47:44;4.40;;;1.67;;
69573;SDS011;62840;52.366;5.980;2023-07-31T07:50:10;5.03;;;1.70;;
69573;SDS011;62840;52.366;5.980;2023-07-31T07:52:36;3.47;;;1.40;;
69573;SDS011;62840;52.366;5.980;2023-07-31T07:55:01;5.75;;;1.40;;
69573;SDS011;62840;52.366;5.980;2023-07-31T07:57:30;4.85;;;1.63;;
69573;SDS011;62840;52.366;5.980;2023-07-31T07:59:56;3.78;;;1.60;;
69573;SDS011;62840;52.366;5.980;2023-07-31T08:02:22;3.90;;;1.60;;
69573;SDS011;62840;52.366;5.980;2023-07-31T08:04:47;4.65;;;1.67;;
69573;SDS011;62840;52.366;5.980;2023-07-31T08:07:13;3.57;;;1.33;;
69573;SDS011;62840;52.366;5.980;2023-07-31T08:09:39;5.07;;;1.40;;
69573;SDS011;62840;52.366;5.980;2023-07-31T08:12:06;4.28;;;1.52;;
69573;SDS011;62840;52.366;5.980;2023-07-31T08:14:35;4.65;;;1.52;;
69573;SDS011;62840;52.366;5.980;2023-07-31T08:17:01;5.10;;;1.83;;
69573;SDS011;62840;52.366;5.980;2023-07-31T08:19:27;3.77;;;1.30;;
69573;SDS011;62840;52.366;5.980;2023-07-31T08:21:53;3.63;;;1.63;;
69573;SDS011;62840;52.366;5.980;2023-07-31T08:24:19;3.78;;;1.58;;
69573;SDS011;62840;52.366;5.980;2023-07-31T08:26:45;4.90;;;1.40;;
69573;SDS011;62840;52.366;5.980;2023-07-31T08:29:11;4.13;;;1.70;;
69573;SDS011;62840;52.366;5.980;2023-07-31T08:31:40;3.25;;;1.27;;
69573;SDS011;62840;52.366;5.980;2023-07-31T08:34:05;4.82;;;1.40;;
69573;SDS011;62840;52.366;5.980;2023-07-31T08:36:31;3.08;;;1.23;;
69573;SDS011;62840;52.366;5.980;2023-07-31T08:38:57;3.20;;;1.33;;
69573;SDS011;62840;52.366;5.980;2023-07-31T08:41:23;3.60;;;1.30;;
69573;SDS011;62840;52.366;5.980;2023-07-31T08:43:49;3.20;;;1.30;;
69573;SDS011;62840;52.366;5.980;2023-07-31T08:46:16;3.10;;;1.23;;
69573;SDS011;62840;52.366;5.980;2023-07-31T08:48:44;3.20;;;1.20;;
69573;SDS011;62840;52.366;5.980;2023-07-31T08:51:10;3.47;;;1.50;;
69573;SDS011;62840;52.366;5.980;2023-07-31T08:53:36;3.50;;;1.17;;
69573;SDS011;62840;52.366;5.980;2023-07-31T08:56:02;3.10;;;1.33;;
69573;SDS011;62840;52.366;5.980;2023-07-31T08:58:31;3.30;;;1.50;;
69573;SDS011;62840;52.366;5.980;2023-07-31T09:01:00;3.10;;;1.50;;
69573;SDS011;62840;52.366;5.980;2023-07-31T09:03:29;4.32;;;1.60;;
69573;SDS011;62840;52.366;5.980;2023-07-31T09:06:02;4.25;;;1.58;;
69573;SDS011;62840;52.366;5.980;2023-07-31T09:08:30;3.63;;;1.40;;
69573;SDS011;62840;52.366;5.980;2023-07-31T09:10:58;4.25;;;1.70;;
69573;SDS011;62840;52.366;5.980;2023-07-31T09:13:25;3.50;;;1.52;;
69573;SDS011;62840;52.366;5.980;2023-07-31T09:15:53;3.90;;;1.80;;
69573;SDS011;62840;52.366;5.980;2023-07-31T09:18:18;4.15;;;1.67;;
69573;SDS011;62840;52.366;5.980;2023-07-31T09:20:44;3.77;;;1.63;;
69573;SDS011;62840;52.366;5.980;2023-07-31T09:23:13;3.50;;;1.60;;
69573;SDS011;62840;52.366;5.980;2023-07-31T09:25:40;3.53;;;1.42;;
69573;SDS011;62840;52.366;5.980;2023-07-31T09:28:10;3.60;;;1.43;;
69573;SDS011;62840;52.366;5.980;2023-07-31T09:30:43;3.25;;;1.60;;
69573;SDS011;62840;52.366;5.980;2023-07-31T09:33:12;3.78;;;1.58;;
69573;SDS011;62840;52.366;5.980;2023-07-31T09:35:37;4.15;;;1.58;;
69573;SDS011;62840;52.366;5.980;2023-07-31T09:38:05;3.47;;;1.73;;
69573;SDS011;62840;52.366;5.980;2023-07-31T09:40:36;3.20;;;1.50;;
69573;SDS011;62840;52.366;5.980;2023-07-31T09:43:05;3.40;;;1.60;;
69573;SDS011;62840;52.366;5.980;2023-07-31T09:45:33;3.40;;;1.53;;
69573;SDS011;62840;52.366;5.980;2023-07-31T09:48:00;3.72;;;1.58;;
69573;SDS011;62840;52.366;5.980;2023-07-31T09:50:26;6.15;;;1.70;;
69573;SDS011;62840;52.366;5.980;2023-07-31T09:52:52;3.53;;;1.57;;
69573;SDS011;62840;52.366;5.980;2023-07-31T09:55:18;3.60;;;1.50;;
69573;SDS011;62840;52.366;5.980;2023-07-31T09:57:48;3.97;;;1.40;;
69573;SDS011;62840;52.366;5.980;2023-07-31T10:00:15;3.55;;;1.50;;
69573;SDS011;62840;52.366;5.980;2023-07-31T10:02:45;4.13;;;1.80;;
69573;SDS011;62840;52.366;5.980;2023-07-31T10:05:12;3.45;;;1.50;;
69573;SDS011;62840;52.366;5.980;2023-07-31T10:07:40;3.40;;;1.73;;
69573;SDS011;62840;52.366;5.980;2023-07-31T10:10:10;4.03;;;1.35;;
69573;SDS011;62840;52.366;5.980;2023-07-31T10:12:39;3.38;;;1.52;;
69573;SDS011;62840;52.366;5.980;2023-07-31T10:15:08;3.20;;;1.50;;
69573;SDS011;62840;52.366;5.980;2023-07-31T10:17:36;3.40;;;1.60;;
69573;SDS011;62840;52.366;5.980;2023-07-31T10:20:02;3.30;;;1.50;;
69573;SDS011;62840;52.366;5.980;2023-07-31T10:22:29;3.50;;;1.70;;
69573;SDS011;62840;52.366;5.980;2023-07-31T10:24:55;3.80;;;1.63;;
69573;SDS011;62840;52.366;5.980;2023-07-31T10:27:24;3.25;;;1.45;;
69573;SDS011;62840;52.366;5.980;2023-07-31T10:29:50;3.58;;;1.73;;
69573;SDS011;62840;52.366;5.980;2023-07-31T10:32:22;3.67;;;1.60;;
69573;SDS011;62840;52.366;5.980;2023-07-31T10:34:50;3.53;;;1.70;;
69573;SDS011;62840;52.366;5.980;2023-07-31T10:37:20;3.33;;;1.55;;
69573;SDS011;62840;52.366;5.980;2023-07-31T10:40:00;3.42;;;1.50;;
69573;SDS011;62840;52.366;5.980;2023-07-31T10:42:29;3.00;;;1.58;;
69573;SDS011;62840;52.366;5.980;2023-07-31T10:44:58;3.28;;;1.50;;
69573;SDS011;62840;52.366;5.980;2023-07-31T10:47:28;5.78;;;1.50;;
69573;SDS011;62840;52.366;5.980;2023-07-31T10:52:44;3.85;;;1.95;;
69573;SDS011;62840;52.366;5.980;2023-07-31T10:55:15;3.50;;;1.80;;
69573;SDS011;62840;52.366;5.980;2023-07-31T10:57:50;3.58;;;2.03;;
69573;SDS011;62840;52.366;5.980;2023-07-31T11:00:19;3.50;;;1.63;;
69573;SDS011;62840;52.366;5.980;2023-07-31T11:03:03;4.10;;;1.98;;
69573;SDS011;62840;52.366;5.980;2023-07-31T11:05:43;2.90;;;1.45;;
69573;SDS011;62840;52.366;5.980;2023-07-31T11:08:15;3.60;;;1.60;;
69573;SDS011;62840;52.366;5.980;2023-07-31T11:10:43;3.80;;;1.83;;
69573;SDS011;62840;52.366;5.980;2023-07-31T11:13:11;3.80;;;1.70;;
69573;SDS011;62840;52.366;5.980;2023-07-31T11:15:37;3.88;;;1.42;;
69573;SDS011;62840;52.366;5.980;2023-07-31T11:18:06;4.13;;;1.88;;
69573;SDS011;62840;52.366;5.980;2023-07-31T11:20:32;3.92;;;1.90;;
69573;SDS011;62840;52.366;5.980;2023-07-31T11:22:59;4.47;;;2.10;;
69573;SDS011;62840;52.366;5.980;2023-07-31T11:25:26;3.60;;;1.75;;
69573;SDS011;62840;52.366;5.980;2023-07-31T11:27:54;3.97;;;1.98;;
69573;SDS011;62840;52.366;5.980;2023-07-31T11:30:20;3.92;;;2.10;;
69573;SDS011;62840;52.366;5.980;2023-07-31T11:32:45;4.30;;;2.10;;
69573;SDS011;62840;52.366;5.980;2023-07-31T11:35:14;4.57;;;2.47;;
69573;SDS011;62840;52.366;5.980;2023-07-31T11:37:40;5.40;;;2.50;;
69573;SDS011;62840;52.366;5.980;2023-07-31T11:40:07;4.82;;;2.55;;
69573;SDS011;62840;52.366;5.980;2023-07-31T11:42:34;4.78;;;2.58;;
69573;SDS011;62840;52.366;5.980;2023-07-31T11:45:01;5.63;;;2.60;;
69573;SDS011;62840;52.366;5.980;2023-07-31T11:47:28;4.90;;;2.53;;
69573;SDS011;62840;52.366;5.980;2023-07-31T11:49:57;6.18;;;2.20;;
69573;SDS011;62840;52.366;5.980;2023-07-31T11:52:25;4.45;;;2.50;;
69573;SDS011;62840;52.366;5.980;2023-07-31T11:54:53;4.60;;;2.20;;
69573;SDS011;62840;52.366;5.980;2023-07-31T11:57:20;4.45;;;2.38;;
69573;SDS011;62840;52.366;5.980;2023-07-31T11:59:46;6.50;;;2.65;;
69573;SDS011;62840;52.366;5.980;2023-07-31T12:02:12;6.68;;;2.90;;
69573;SDS011;62840;52.366;5.980;2023-07-31T12:04:38;6.07;;;2.72;;
69573;SDS011;62840;52.366;5.980;2023-07-31T12:07:04;5.10;;;2.80;;
69573;SDS011;62840;52.366;5.980;2023-07-31T12:09:33;5.80;;;2.70;;
69573;SDS011;62840;52.366;5.980;2023-07-31T12:11:59;5.22;;;2.65;;
69573;SDS011;62840;52.366;5.980;2023-07-31T12:14:25;6.03;;;3.10;;
69573;SDS011;62840;52.366;5.980;2023-07-31T12:16:53;5.93;;;2.83;;
69573;SDS011;62840;52.366;5.980;2023-07-31T12:19:19;4.95;;;2.90;;
69573;SDS011;62840;52.366;5.980;2023-07-31T12:21:45;6.00;;;2.73;;
69573;SDS011;62840;52.366;5.980;2023-07-31T12:24:11;5.15;;;2.50;;
69573;SDS011;62840;52.366;5.980;2023-07-31T12:26:39;5.10;;;2.47;;
69573;SDS011;62840;52.366;5.980;2023-07-31T12:29:05;5.18;;;2.67;;
69573;SDS011;62840;52.366;5.980;2023-07-31T12:31:33;4.90;;;2.38;;
69573;SDS011;62840;52.366;5.980;2023-07-31T12:33:59;4.85;;;2.30;;
69573;SDS011;62840;52.366;5.980;2023-07-31T12:36:25;3.87;;;2.13;;
69573;SDS011;62840;52.366;5.980;2023-07-31T12:38:51;4.22;;;2.40;;
69573;SDS011;62840;52.366;5.980;2023-07-31T12:41:18;3.83;;;2.08;;
69573;SDS011;62840;52.366;5.980;2023-07-31T12:43:46;4.20;;;2.10;;
69573;SDS011;62840;52.366;5.980;2023-07-31T12:46:12;5.05;;;2.17;;
69573;SDS011;62840;52.366;5.980;2023-07-31T12:48:38;4.93;;;2.00;;
69573;SDS011;62840;52.366;5.980;2023-07-31T12:51:05;3.70;;;1.73;;
69573;SDS011;62840;52.366;5.980;2023-07-31T12:53:31;4.30;;;2.00;;
69573;SDS011;62840;52.366;5.980;2023-07-31T12:55:57;3.53;;;1.70;;
69573;SDS011;62840;52.366;5.980;2023-07-31T12:58:23;4.65;;;1.98;;
69573;SDS011;62840;52.366;5.980;2023-07-31T13:00:52;3.70;;;1.80;;
69573;SDS011;62840;52.366;5.980;2023-07-31T13:03:17;5.82;;;1.70;;
69573;SDS011;62840;52.366;5.980;2023-07-31T13:05:43;4.63;;;1.75;;
69573;SDS011;62840;52.366;5.980;2023-07-31T13:08:09;5.30;;;2.17;;
69573;SDS011;62840;52.366;5.980;2023-07-31T13:10:34;4.88;;;2.15;;
69573;SDS011;62840;52.366;5.980;2023-07-31T13:13:00;3.90;;;1.70;;
69573;SDS011;62840;52.366;5.980;2023-07-31T13:15:26;6.95;;;2.13;;
69573;SDS011;62840;52.366;5.980;2023-07-31T13:17:54;7.20;;;2.10;;
69573;SDS011;62840;52.366;5.980;2023-07-31T13:20:20;4.57;;;2.00;;
69573;SDS011;62840;52.366;5.980;2023-07-31T13:22:46;6.07;;;2.60;;
69573;SDS011;62840;52.366;5.980;2023-07-31T13:25:11;7.00;;;2.50;;
69573;SDS011;62840;52.366;5.980;2023-07-31T13:27:37;7.68;;;2.58;;
69573;SDS011;62840;52.366;5.980;2023-07-31T13:30:03;4.17;;;2.10;;
69573;SDS011;62840;52.366;5.980;2023-07-31T13:32:31;6.20;;;2.60;;
69573;SDS011;62840;52.366;5.980;2023-07-31T13:34:59;7.35;;;2.38;;
69573;SDS011;62840;52.366;5.980;2023-07-31T13:37:25;4.35;;;2.38;;
69573;SDS011;62840;52.366;5.980;2023-07-31T13:39:51;4.25;;;2.40;;
69573;SDS011;62840;52.366;5.980;2023-07-31T13:42:17;4.77;;;2.50;;
69573;SDS011;62840;52.366;5.980;2023-07-31T13:44:42;5.78;;;2.47;;
69573;SDS011;62840;52.366;5.980;2023-07-31T13:47:08;5.23;;;2.40;;
69573;SDS011;62840;52.366;5.980;2023-07-31T13:49:34;5.13;;;2.72;;
69573;SDS011;62840;52.366;5.980;2023-07-31T13:52:04;5.03;;;2.60;;
69573;SDS011;62840;52.366;5.980;2023-07-31T13:54:30;5.00;;;2.50;;
69573;SDS011;62840;52.366;5.980;2023-07-31T13:56:56;5.60;;;2.60;;
69573;SDS011;62840;52.366;5.980;2023-07-31T13:59:22;5.97;;;2.97;;
69573;SDS011;62840;52.366;5.980;2023-07-31T14:01:48;4.85;;;2.88;;
69573;SDS011;62840;52.366;5.980;2023-07-31T14:04:15;5.47;;;2.90;;
69573;SDS011;62840;52.366;5.980;2023-07-31T14:06:41;5.40;;;2.75;;
69573;SDS011;62840;52.366;5.980;2023-07-31T14:09:09;6.35;;;3.25;;
69573;SDS011;62840;52.366;5.980;2023-07-31T14:11:35;4.70;;;2.65;;
69573;SDS011;62840;52.366;5.980;2023-07-31T14:14:01;5.82;;;3.35;;
69573;SDS011;62840;52.366;5.980;2023-07-31T14:16:27;6.37;;;3.37;;
69573;SDS011;62840;52.366;5.980;2023-07-31T14:18:52;5.63;;;2.95;;
69573;SDS011;62840;52.366;5.980;2023-07-31T14:21:18;5.03;;;3.05;;
69573;SDS011;62840;52.366;5.980;2023-07-31T14:23:44;5.40;;;2.90;;
69573;SDS011;62840;52.366;5.980;2023-07-31T14:26:13;4.82;;;3.05;;
69573;SDS011;62840;52.366;5.980;2023-07-31T14:28:38;5.90;;;3.20;;
69573;SDS011;62840;52.366;5.980;2023-07-31T14:31:04;5.43;;;3.00;;
69573;SDS011;62840;52.366;5.980;2023-07-31T14:33:30;5.00;;;2.72;;
69573;SDS011;62840;52.366;5.980;2023-07-31T14:35:56;5.00;;;3.00;;
69573;SDS011;62840;52.366;5.980;2023-07-31T14:38:21;5.97;;;3.10;;
69573;SDS011;62840;52.366;5.980;2023-07-31T14:40:47;5.85;;;3.28;;
69573;SDS011;62840;52.366;5.980;2023-07-31T14:43:16;5.67;;;3.27;;
69573;SDS011;62840;52.366;5.980;2023-07-31T14:45:41;5.25;;;2.90;;
69573;SDS011;62840;52.366;5.980;2023-07-31T14:48:07;4.60;;;2.80;;
69573;SDS011;62840;52.366;5.980;2023-07-31T14:50:33;5.20;;;2.83;;